Terminal Aerodrome Forecast
Issued by NWS

Home | Current Version | Previous Version | Text Only | Print | Product List | Glossary On
Versions: 1 2 3 4 5 6 7 8 9 10 11 12 13 14 15 16 17
000
FTUS43 KGRR 232345
TAFLAN
TAF
KLAN 232345Z 2400/2424 15012KT P6SM OVC070
     FM240400 17012KT P6SM VCSH OVC035
     FM240700 20012KT 5SM -SHRA BR VCTS OVC035CB
     FM241100 21013KT 5SM -RA BR OVC030
     FM241400 22015G25KT P6SM OVC035=

USA.gov is the U.S. government's official web portal to all federal, state and local government web resources and services.